イエローナイフ の空港の天気 - METARとTAF

イエローナイフ空港 ( CYZF / YZF ) - カナダ ノースウエスト準州イエローナイフ
飛行場実況気象(Metar)
観測時間10/23 20:00 MDT (10/24 02:00 UTC)
風向・風速南南東 8m/s
視程10km以上
天気現象
少しの雲 雲底高度 3660m
全天の8割程度の雲 雲底高度 5490m
気温5℃
湿度75%
気圧1003.8hPa
METARCYZF 240200Z 15015KT 15SM FEW120 BKN180 05/01 A2961 RMK AC2AC5 SLP038
過去の天気等 Google飛行場航空写真 Wunderground天気予報

過去48時間のMETAR

飛行場予報(TAF)
発表時間: 10/23 17:38 MDT (10/23 23:38 UTC)
予報対象時間: 23日18時 MDT ~ 24日18時 MDT
風向・風速南南東 8m/s 瞬間風速 13m/s
視程10km以上
少しの雲 雲底高度 460m
全天の4割程度の雲 雲底高度 2440m
全天の8割程度の雲 雲底高度 6710m
23日18時 MDT ~ 23日19時 MDT に徐々に
風向・風速南南東 5m/s
23日21時 MDT から
風向・風速南東 5m/s
視程10km以上
少しの雲 雲底高度 610m
全天の8割程度の雲 雲底高度 2740m
全天の8割程度の雲 雲底高度 5490m
24日0時 MDT から
風向・風速南東 5m/s
視程10km以上
全天の4割程度の雲 雲底高度 610m
全天を覆う雲 雲底高度 3050m
24日0時 MDT ~ 24日4時 MDT に一時的に
視程10km以上
天気現象弱いしゅう雨
少しの雲 雲底高度 240m
全天の8割程度の雲 雲底高度 610m
全天を覆う雲 雲底高度 2440m
24日5時 MDT から
風向・風速南東 6m/s
視程10km以上
全天の8割程度の雲 雲底高度 910m
全天を覆う雲 雲底高度 3660m
24日8時 MDT ~ 24日10時 MDT に徐々に
風向・風速南東 8m/s 瞬間風速 13m/s
24日10時 MDT から
風向・風速南東 8m/s 瞬間風速 13m/s
視程10km以上
全天を覆う雲 雲底高度 760m
24日10時 MDT ~ 24日18時 MDT に一時的に
全天を覆う雲 雲底高度 610m
TAF CYZF 232338Z 2400/2424 15015G25KT P6SM FEW015 SCT080 BKN220
BECMG 2400/2401 15010KT
FM240300 14010KT P6SM FEW020 BKN090 BKN180
FM240600 14010KT P6SM SCT020 OVC100
TEMPO 2406/2410 P6SM -SHRA FEW008 BKN020 OVC080
FM241100 13012KT P6SM BKN030 OVC120
BECMG 2414/2416 14015G25KT
FM241600 14015G25KT P6SM OVC025
TEMPO 2416/2424 OVC020 RMK NXT FCST BY 240600Z